Time;durP1;ratioP1;P1;durP2;ratioP2;P2;SDS_P1;SDS_P2;PMS_P1;PMS_P2;Temp;Humidity;BMP_temperature;BMP_pressure;BME280_temperature;BME280_humidity;BME280_pressure;Samples;Min_cycle;Max_cycle;Signal;HPM_P1;HPM_P2
2022/05/14 00:00:00;;;;;;;16.83;5.88;;;16.70;53.50;;;11.02;78.14;101869.47;173498;28;926;-72
2022/05/14 00:00:08;;;;;;;16.70;5.85;;;16.70;53.50;;;11.03;78.30;101868.59;174023;28;878;-72
2022/05/14 00:00:17;;;;;;;15.32;5.93;;;16.70;53.60;;;10.99;78.75;101866.97;174004;28;973;-72
2022/05/14 00:00:29;;;;;;;14.67;6.04;;;16.70;53.60;;;11.00;78.79;101863.47;174019;28;1139;-72
2022/05/14 00:00:35;;;;;;;11.82;5.86;;;16.70;53.60;;;11.00;78.56;101860.84;173742;28;1236;-72
2022/05/14 00:00:42;;;;;;;12.27;5.72;;;16.70;53.60;;;11.00;78.54;101866.06;174002;28;1083;-72
2022/05/14 00:00:49;;;;;;;11.50;5.40;;;16.70;53.60;;;10.98;79.00;101865.25;173918;28;1072;-72
2022/05/14 00:00:55;;;;;;;11.42;5.36;;;16.70;53.60;;;10.97;79.09;101863.53;173207;28;1222;-72
2022/05/14 00:01:03;;;;;;;11.45;5.30;;;16.70;53.60;;;10.94;78.94;101867.09;173199;28;1181;-72
2022/05/14 00:01:09;;;;;;;11.20;5.22;;;16.70;53.60;;;10.89;79.56;101863.78;173347;28;1016;-72
2022/05/14 00:01:15;;;;;;;11.65;5.53;;;16.70;53.60;;;10.89;79.14;101866.38;173346;28;1057;-72
2022/05/14 00:01:21;;;;;;;12.98;5.68;;;16.70;53.60;;;10.91;79.00;101868.94;173335;28;910;-72
2022/05/14 00:01:28;;;;;;;13.13;5.65;;;16.70;53.60;;;10.92;79.41;101870.66;172607;28;875;-72
2022/05/14 00:01:35;;;;;;;14.72;5.74;;;16.70;53.60;;;10.93;79.14;101867.16;172528;28;1145;-72
2022/05/14 00:01:42;;;;;;;15.00;5.94;;;16.70;53.60;;;10.94;78.77;101866.22;172659;28;898;-72
2022/05/14 00:01:48;;;;;;;13.98;5.98;;;16.70;53.60;;;10.94;79.11;101868.84;173064;28;930;-72
2022/05/14 00:01:54;;;;;;;13.38;5.90;;;16.70;53.60;;;10.95;78.87;101860.13;173308;28;930;-72
2022/05/14 00:01:59;;;;;;;12.25;5.82;;;16.70;53.60;;;10.96;78.76;101867.06;173338;28;917;-72
2022/05/14 00:02:05;;;;;;;14.10;5.80;;;16.70;53.60;;;10.97;79.07;101863.53;173302;28;1111;-71
2022/05/14 00:02:12;;;;;;;14.30;5.60;;;16.70;53.60;;;10.94;79.19;101859.25;173359;28;830;-72
2022/05/14 00:02:19;;;;;;;15.40;5.40;;;16.70;53.60;;;10.92;79.27;101865.44;173232;28;1155;-72
2022/05/14 00:02:25;;;;;;;16.98;5.54;;;16.70;53.70;;;10.93;79.74;101860.19;173285;28;1037;-72
2022/05/14 00:02:31;;;;;;;19.10;5.68;;;16.70;53.70;;;10.93;79.34;101856.69;173302;28;1229;-72
2022/05/14 00:02:37;;;;;;;17.67;5.70;;;16.70;53.70;;;10.94;79.08;101861.88;173066;28;954;-72
2022/05/14 00:02:43;;;;;;;17.47;5.80;;;16.70;53.70;;;10.95;79.35;101870.59;173380;28;894;-72
2022/05/14 00:02:49;;;;;;;16.00;5.70;;;16.60;53.70;;;10.97;79.43;101867.91;173331;28;914;-72
2022/05/14 00:02:55;;;;;;;14.37;5.53;;;16.70;53.80;;;10.97;79.19;101863.53;173866;28;875;-72
2022/05/14 00:03:01;;;;;;;13.08;5.52;;;16.70;53.80;;;10.97;79.23;101857.44;173261;28;1165;-72
2022/05/14 00:03:07;;;;;;;13.07;5.57;;;16.70;53.80;;;10.97;79.15;101858.31;173318;28;906;-72
2022/05/14 00:03:13;;;;;;;12.02;5.40;;;16.60;53.80;;;10.97;79.38;101866.16;173346;28;1342;-72
2022/05/14 00:03:19;;;;;;;14.15;5.60;;;16.70;53.80;;;10.98;79.11;101864.41;173331;28;852;-72
2022/05/14 00:03:27;;;;;;;14.98;5.88;;;16.70;53.80;;;10.98;79.17;101861.81;173582;28;1343;-72
2022/05/14 00:03:38;;;;;;;15.08;6.03;;;16.60;53.80;;;10.98;78.93;101867.84;173971;28;1084;-72
2022/05/14 00:03:44;;;;;;;15.56;6.13;;;16.70;53.80;;;10.99;79.07;101864.38;174014;28;1358;-72
2022/05/14 00:03:50;;;;;;;13.73;6.10;;;16.70;53.80;;;10.99;78.88;101866.13;174005;28;898;-72
2022/05/14 00:03:56;;;;;;;13.73;5.90;;;16.70;53.80;;;10.98;78.84;101860.03;173992;28;953;-72
2022/05/14 00:04:04;;;;;;;13.80;5.88;;;16.70;53.80;;;10.99;78.98;101861.75;173999;28;878;-72
2022/05/14 00:04:10;;;;;;;14.10;5.92;;;16.70;53.90;;;10.99;79.41;101863.50;174004;28;1238;-72
2022/05/14 00:04:16;;;;;;;15.30;6.10;;;16.70;53.90;;;10.98;78.98;101867.84;174322;28;976;-72
2022/05/14 00:04:22;;;;;;;15.50;6.17;;;16.60;53.90;;;10.97;79.38;101863.53;174708;28;945;-73
2022/05/14 00:04:27;;;;;;;14.30;6.10;;;16.70;53.90;;;10.98;79.46;101859.19;174694;28;955;-72
2022/05/14 00:04:33;;;;;;;13.23;5.93;;;16.70;54.00;;;10.99;79.58;101866.13;174703;28;926;-72
2022/05/14 00:04:39;;;;;;;12.73;5.85;;;16.60;54.00;;;10.98;79.66;101864.41;174692;28;1099;-72
2022/05/14 00:04:46;;;;;;;13.07;5.70;;;16.70;54.00;;;10.98;79.21;101865.25;174749;28;890;-71
2022/05/14 00:04:51;;;;;;;14.23;5.77;;;16.70;54.00;;;10.98;79.43;101865.25;174628;28;1388;-71
2022/05/14 00:04:57;;;;;;;15.02;5.85;;;16.70;54.00;;;10.99;79.31;101866.97;174664;28;1123;-71
2022/05/14 00:05:05;;;;;;;16.67;6.00;;;16.60;54.00;;;10.99;79.38;101866.97;174731;28;1080;-72
2022/05/14 00:05:11;;;;;;;18.17;6.08;;;16.60;54.00;;;10.98;79.13;101854.81;174746;28;979;-72
2022/05/14 00:05:24;;;;;;;17.48;6.04;;;16.60;54.00;;;10.98;79.21;101865.25;174730;28;906;-72
2022/05/14 00:05:30;;;;;;;17.05;6.11;;;16.70;54.10;;;10.98;79.24;101865.25;174520;28;2246;-72
2022/05/14 00:05:36;;;;;;;15.93;6.03;;;16.60;54.10;;;10.97;79.31;101863.53;174469;28;929;-72
2022/05/14 00:05:43;;;;;;;15.00;6.10;;;16.70;54.10;;;10.98;79.31;101867.03;174834;28;882;-72
2022/05/14 00:05:49;;;;;;;14.66;6.00;;;16.70;54.10;;;10.98;79.31;101861.81;174575;28;1847;-72
2022/05/14 00:06:00;;;;;;;14.80;5.97;;;16.60;54.10;;;10.98;79.44;101861.81;174698;28;910;-72
2022/05/14 00:06:20;;;;;;;16.48;6.19;;;16.70;54.10;;;10.97;79.64;101865.28;174635;28;1161;-72
2022/05/14 00:06:30;;;;;;;15.69;6.13;;;16.60;54.20;;;10.97;79.38;101867.91;174637;28;1239;-72
2022/05/14 00:06:35;;;;;;;12.91;5.82;;;16.60;54.20;;;10.97;79.24;101873.13;174392;28;1165;-72
2022/05/14 00:06:41;;;;;;;13.95;5.93;;;16.60;54.20;;;10.96;79.70;101867.06;174690;28;1044;-72
2022/05/14 00:06:47;;;;;;;14.73;6.05;;;16.60;54.20;;;10.96;79.58;101861.84;174690;28;1005;-71
2022/05/14 00:06:54;;;;;;;15.05;6.35;;;16.60;54.20;;;10.95;79.56;101860.13;174715;28;1303;-72
2022/05/14 00:07:00;;;;;;;16.02;6.40;;;16.60;54.20;;;10.95;79.67;101860.97;174703;28;933;-72
2022/05/14 00:07:05;;;;;;;16.00;6.13;;;16.60;54.20;;;10.95;79.33;101865.34;174678;28;928;-72
2022/05/14 00:07:11;;;;;;;15.13;6.07;;;16.60;54.20;;;10.95;79.16;101866.19;174581;28;1407;-71
2022/05/14 00:07:17;;;;;;;13.93;5.90;;;16.60;54.10;;;10.94;79.71;101863.63;174678;28;941;-72
2022/05/14 00:07:23;;;;;;;14.27;5.80;;;16.60;54.10;;;10.92;79.44;101866.28;174666;28;1060;-71
2022/05/14 00:07:28;;;;;;;14.53;5.73;;;16.60;54.10;;;10.93;79.78;101867.16;174679;28;989;-72
2022/05/14 00:07:34;;;;;;;15.65;5.95;;;16.60;54.10;;;10.93;79.34;101864.53;174411;28;926;-72
2022/05/14 00:07:40;;;;;;;15.88;6.10;;;16.60;54.10;;;10.93;79.93;101867.16;174706;28;1115;-72
2022/05/14 00:07:48;;;;;;;15.90;6.20;;;16.60;54.10;;;10.93;79.35;101867.16;174713;28;910;-72
2022/05/14 00:07:54;;;;;;;16.68;6.36;;;16.60;54.10;;;10.93;79.48;101872.38;173923;28;1168;-72
2022/05/14 00:08:00;;;;;;;16.30;6.40;;;16.60;54.10;;;10.94;79.90;101866.22;174062;28;874;-72
2022/05/14 00:08:06;;;;;;;15.15;6.18;;;16.60;54.10;;;10.95;79.40;101867.97;173984;28;1029;-72
2022/05/14 00:08:15;;;;;;;14.02;6.13;;;16.60;54.10;;;10.93;79.38;101864.53;174047;28;1103;-72
2022/05/14 00:08:24;;;;;;;12.93;5.99;;;16.60;54.10;;;10.94;79.38;101864.50;173994;28;1060;-71
2022/05/14 00:08:32;;;;;;;12.26;5.96;;;16.60;54.20;;;10.94;79.86;101868.84;174013;28;1060;-71
2022/05/14 00:08:39;;;;;;;14.73;5.97;;;16.60;54.20;;;10.94;79.54;101863.63;173768;28;966;-72
2022/05/14 00:08:46;;;;;;;16.98;5.98;;;16.60;54.20;;;10.93;80.06;101870.63;174019;28;975;-72
2022/05/14 00:08:53;;;;;;;17.42;5.80;;;16.60;54.20;;;10.94;79.31;101863.63;173993;28;990;-72
2022/05/14 00:09:02;;;;;;;17.67;5.90;;;16.60;54.20;;;10.94;79.56;101866.22;174020;28;914;-72
2022/05/14 00:09:08;;;;;;;17.31;6.09;;;16.60;54.20;;;10.94;79.96;101861.00;173997;28;1076;-72
2022/05/14 00:09:13;;;;;;;15.43;6.20;;;16.60;54.20;;;10.94;79.58;101864.50;174761;28;1041;-71
2022/05/14 00:09:19;;;;;;;14.87;6.13;;;16.60;54.20;;;10.94;79.93;101863.63;174706;28;984;-71
2022/05/14 00:09:25;;;;;;;15.35;6.10;;;16.60;54.30;;;10.95;79.61;101870.59;174696;28;1040;-72
2022/05/14 00:09:30;;;;;;;14.52;5.95;;;16.60;54.30;;;10.95;79.81;101865.34;173890;28;1514;-71
2022/05/14 00:09:36;;;;;;;14.77;5.70;;;16.60;54.30;;;10.96;79.67;101867.06;173735;28;919;-72
2022/05/14 00:09:42;;;;;;;15.07;5.72;;;16.60;54.30;;;10.94;79.65;101868.84;174000;28;1025;-72
2022/05/14 00:09:47;;;;;;;14.98;5.85;;;16.60;54.30;;;10.95;79.75;101865.34;174000;28;938;-72
2022/05/14 00:09:53;;;;;;;15.67;6.00;;;16.60;54.30;;;10.96;79.67;101872.28;174472;28;1045;-72
2022/05/14 00:09:59;;;;;;;16.13;5.95;;;16.60;54.30;;;10.95;80.00;101860.97;174720;28;878;-71
2022/05/14 00:10:07;;;;;;;18.60;6.30;;;16.60;54.30;;;10.96;79.58;101864.44;174623;28;1060;-71
2022/05/14 00:10:15;;;;;;;19.20;6.33;;;16.60;54.30;;;10.95;79.71;101865.34;174768;28;866;-72
2022/05/14 00:10:27;;;;;;;19.47;6.38;;;16.60;54.30;;;10.95;79.35;101865.34;174666;28;1166;-72
2022/05/14 00:13:03;;;;;;;19.39;6.45;;;16.60;54.30;;;10.90;80.86;101870.69;174698;28;1246;-72
2022/05/14 00:13:05;;;;;;;16.59;6.68;;;16.60;54.50;;;10.90;80.14;101867.22;174770;28;1186;-72
2022/05/14 00:13:10;;;;;;;19.10;6.42;;;16.50;54.60;;;10.90;80.31;101867.22;174588;28;1263;-72
2022/05/14 00:13:16;;;;;;;19.80;6.40;;;16.60;54.60;;;10.90;80.34;101868.09;174728;28;938;-71
2022/05/14 00:13:24;;;;;;;18.10;6.43;;;16.50;54.60;;;10.91;79.86;101866.31;174698;28;1036;-71
2022/05/14 00:13:30;;;;;;;16.33;6.33;;;16.60;54.60;;;10.90;80.16;101872.44;174725;28;1065;-72
2022/05/14 00:13:38;;;;;;;17.38;6.47;;;16.60;54.60;;;10.90;80.32;101868.09;174361;28;978;-72
2022/05/14 00:13:44;;;;;;;15.60;6.38;;;16.60;54.60;;;10.91;80.45;101863.69;174712;28;984;-72
2022/05/14 00:13:52;;;;;;;14.82;6.13;;;16.60;54.70;;;10.91;80.08;101866.31;174696;28;1080;-72
2022/05/14 00:14:03;;;;;;;15.10;6.10;;;16.50;54.70;;;10.90;80.63;101862.00;174045;28;946;-72
2022/05/14 00:14:09;;;;;;;15.61;6.06;;;16.60;54.70;;;10.91;80.80;101867.19;173984;28;1147;-72
2022/05/14 00:14:16;;;;;;;17.47;6.50;;;16.60;54.80;;;10.91;80.57;101863.69;174008;28;1144;-72
2022/05/14 00:14:22;;;;;;;17.63;6.60;;;16.60;54.70;;;10.91;80.26;101861.97;173999;28;934;-72
2022/05/14 00:14:28;;;;;;;18.94;6.60;;;16.50;54.70;;;10.91;80.11;101867.19;174001;28;1001;-72
2022/05/14 00:14:34;;;;;;;19.50;6.70;;;16.50;54.70;;;10.91;80.48;101863.69;173717;28;1041;-72
2022/05/14 00:14:40;;;;;;;16.75;6.50;;;16.60;54.70;;;10.92;80.58;101865.44;174003;28;1037;-72
2022/05/14 00:14:46;;;;;;;16.20;6.37;;;16.60;54.70;;;10.90;80.72;101867.22;174030;28;1442;-71
2022/05/14 00:14:51;;;;;;;16.25;6.40;;;16.50;54.70;;;10.90;80.32;101862.00;173986;28;1013;-72
2022/05/14 00:14:57;;;;;;;14.25;6.30;;;16.60;54.70;;;10.91;80.19;101861.09;173118;28;1265;-72
2022/05/14 00:15:03;;;;;;;13.07;6.33;;;16.50;54.70;;;10.92;80.48;101865.44;173055;28;1276;-72
2022/05/14 00:15:09;;;;;;;13.53;6.20;;;16.60;54.80;;;10.91;80.50;101864.56;174288;28;1144;-72
2022/05/14 00:15:15;;;;;;;14.03;6.50;;;16.60;54.80;;;10.91;80.43;101858.47;174739;28;910;-71
2022/05/14 00:15:22;;;;;;;14.13;6.40;;;16.60;54.80;;;10.90;80.65;101862.00;174694;28;997;-72
2022/05/14 00:15:28;;;;;;;15.07;6.60;;;16.50;54.80;;;10.90;80.05;101862.00;174691;28;1155;-71
2022/05/14 00:15:42;;;;;;;15.10;6.53;;;16.60;54.80;;;10.91;80.23;101863.69;174671;28;1024;-72
2022/05/14 00:15:49;;;;;;;15.40;6.45;;;16.60;54.80;;;10.91;80.30;101868.94;174741;28;1234;-72
2022/05/14 00:15:55;;;;;;;15.80;6.30;;;16.50;54.80;;;10.91;80.02;101863.69;173929;28;1368;-72
2022/05/14 00:16:03;;;;;;;14.93;6.22;;;16.50;54.80;;;10.90;80.50;101865.47;173970;28;1171;-72
2022/05/14 00:16:12;;;;;;;15.26;6.30;;;16.50;54.80;;;10.91;80.44;101869.78;173992;28;1000;-72
2022/05/14 00:16:23;;;;;;;16.01;6.36;;;16.50;54.80;;;10.91;80.55;101866.31;173995;28;1155;-72
2022/05/14 00:16:33;;;;;;;16.40;6.36;;;16.50;54.80;;;10.92;80.48;101865.44;174036;28;1154;-72
2022/05/14 00:16:40;;;;;;;17.38;6.27;;;16.50;54.80;;;10.92;80.63;101862.81;174658;28;1243;-72
2022/05/14 00:16:46;;;;;;;16.65;6.22;;;16.60;54.90;;;10.91;80.60;101868.94;174743;28;1001;-72
2022/05/14 00:16:52;;;;;;;16.28;6.20;;;16.60;54.80;;;10.91;80.32;101863.69;174694;28;1356;-72
2022/05/14 00:16:58;;;;;;;14.70;6.17;;;16.50;54.80;;;10.92;80.41;101870.66;174714;28;969;-72
2022/05/14 00:17:04;;;;;;;13.85;6.00;;;16.50;54.80;;;10.90;80.37;101862.00;174689;28;1001;-71
2022/05/14 00:17:10;;;;;;;12.87;6.10;;;16.50;54.80;;;10.91;80.13;101863.69;174734;28;989;-72
2022/05/14 00:17:16;;;;;;;12.77;6.05;;;16.60;54.80;;;10.89;80.86;101865.50;174721;28;858;-71
2022/05/14 00:17:21;;;;;;;12.05;5.90;;;16.60;54.80;;;10.86;80.75;101862.97;174682;28;1013;-72
2022/05/14 00:17:27;;;;;;;13.03;5.93;;;16.50;54.80;;;10.87;80.67;101862.06;174707;28;846;-72
2022/05/14 00:17:33;;;;;;;13.18;6.00;;;16.50;54.80;;;10.87;80.54;101859.47;174663;28;862;-72
2022/05/14 00:17:39;;;;;;;12.77;5.90;;;16.50;54.80;;;10.88;81.00;101866.41;174574;28;1485;-72
2022/05/14 00:17:47;;;;;;;12.30;5.80;;;16.50;54.80;;;10.88;80.70;101859.41;173927;28;1404;-72
2022/05/14 00:17:54;;;;;;;13.42;5.98;;;16.60;54.80;;;10.89;80.53;101870.75;174186;28;992;-71
2022/05/14 00:18:02;;;;;;;14.05;6.23;;;16.50;54.80;;;10.88;80.69;101867.25;174699;28;968;-71
2022/05/14 00:18:10;;;;;;;14.40;6.22;;;16.50;54.80;;;10.89;80.56;101861.16;174692;28;918;-71
2022/05/14 00:18:16;;;;;;;17.81;6.43;;;16.50;54.80;;;10.90;80.50;101864.59;174698;28;1049;-72
2022/05/14 00:18:23;;;;;;;20.17;6.57;;;16.50;54.90;;;10.90;80.64;101862.88;174604;28;1155;-72
2022/05/14 00:18:30;;;;;;;19.52;6.50;;;16.50;54.90;;;10.90;80.73;101862.00;174681;28;1012;-71
2022/05/14 00:18:37;;;;;;;20.20;6.50;;;16.50;54.90;;;10.90;80.72;101867.22;174405;28;977;-71
2022/05/14 00:18:44;;;;;;;18.32;6.50;;;16.50;54.90;;;10.90;80.34;101864.59;174688;28;914;-72
2022/05/14 00:18:53;;;;;;;15.20;6.50;;;16.50;54.90;;;10.90;80.44;101867.22;174718;28;965;-72
2022/05/14 00:19:01;;;;;;;14.70;6.50;;;16.50;54.90;;;10.91;80.63;101863.69;173945;28;1532;-72
2022/05/14 00:19:09;;;;;;;15.31;6.54;;;16.50;54.90;;;10.91;80.28;101868.94;174003;28;1057;-72
2022/05/14 00:19:15;;;;;;;17.17;6.80;;;16.50;54.90;;;10.91;80.72;101863.69;174064;28;1065;-72
2022/05/14 00:19:22;;;;;;;17.33;6.75;;;16.50;54.90;;;10.90;80.44;101862.88;174011;28;918;-71
2022/05/14 00:19:28;;;;;;;18.03;6.70;;;16.60;54.90;;;10.90;80.76;101864.59;174028;28;982;-71
2022/05/14 00:19:34;;;;;;;18.55;6.70;;;16.50;54.90;;;10.90;80.56;101867.22;173850;28;1037;-72
2022/05/14 00:19:39;;;;;;;18.23;6.72;;;16.50;54.90;;;10.89;80.43;101861.16;173998;28;862;-71
2022/05/14 00:19:45;;;;;;;17.83;6.60;;;16.50;54.90;;;10.90;80.40;101865.47;174681;28;986;-71
2022/05/14 00:19:51;;;;;;;17.98;6.63;;;16.50;54.90;;;10.90;80.89;101862.88;174603;28;1474;-71
2022/05/14 00:19:56;;;;;;;17.92;6.60;;;16.50;54.90;;;10.90;80.49;101856.78;174692;28;1466;-72
2022/05/14 00:20:03;;;;;;;15.43;6.50;;;16.50;55.00;;;10.90;80.48;101868.09;174717;28;851;-71
2022/05/14 00:20:10;;;;;;;14.44;6.42;;;16.60;55.00;;;10.89;80.33;101865.50;174658;28;1085;-71
2022/05/14 00:20:16;;;;;;;13.97;6.27;;;16.50;54.90;;;10.89;80.87;101858.53;174630;28;1433;-71
2022/05/14 00:20:23;;;;;;;14.00;6.18;;;16.50;54.90;;;10.89;80.94;101860.28;174698;28;839;-71
2022/05/14 00:20:31;;;;;;;14.94;6.20;;;16.50;54.90;;;10.89;80.73;101865.50;174595;28;1208;-72
2022/05/14 00:20:38;;;;;;;16.12;6.13;;;16.50;55.00;;;10.88;80.65;101863.81;174352;28;981;-71
2022/05/14 00:20:44;;;;;;;16.80;6.28;;;16.50;54.90;;;10.88;80.51;101863.81;174614;28;1126;-71
2022/05/14 00:20:52;;;;;;;16.02;6.30;;;16.50;54.90;;;10.88;80.76;101861.19;174695;28;1104;-71
2022/05/14 00:20:59;;;;;;;16.20;6.44;;;16.50;54.90;;;10.87;80.23;101862.94;174651;28;1144;-71
2022/05/14 00:21:06;;;;;;;15.60;6.57;;;16.50;54.90;;;10.88;80.39;101855.97;174715;28;1131;-71
2022/05/14 00:21:13;;;;;;;16.53;6.50;;;16.50;54.90;;;10.87;80.98;101862.06;174707;28;883;-71
2022/05/14 00:21:22;;;;;;;16.00;6.37;;;16.50;54.90;;;10.88;80.33;101869.03;174722;28;1069;-72
2022/05/14 00:21:28;;;;;;;15.83;6.37;;;16.50;54.90;;;10.86;80.56;101866.47;174715;28;902;-72
2022/05/14 00:21:36;;;;;;;16.30;6.40;;;16.50;54.90;;;10.87;80.90;101859.47;174438;28;887;-72
2022/05/14 00:21:42;;;;;;;14.53;6.18;;;16.50;54.90;;;10.87;80.67;101867.28;174538;28;1258;-72
2022/05/14 00:21:48;;;;;;;15.83;6.13;;;16.50;54.90;;;10.87;80.26;101862.94;174772;28;887;-71
2022/05/14 00:21:54;;;;;;;16.67;6.20;;;16.50;54.90;;;10.85;80.57;101858.66;174692;28;883;-71
2022/05/14 00:21:59;;;;;;;15.90;6.10;;;16.50;54.90;;;10.84;80.73;101864.78;174669;28;1076;-71
2022/05/14 00:22:05;;;;;;;15.50;6.10;;;16.50;54.90;;;10.84;80.91;101862.19;174686;28;1146;-72
2022/05/14 00:22:11;;;;;;;14.80;6.27;;;16.50;54.90;;;10.81;80.92;101863.97;174696;28;811;-71
2022/05/14 00:22:16;;;;;;;14.40;6.43;;;16.50;54.90;;;10.82;81.05;101863.06;174731;28;961;-71
2022/05/14 00:22:22;;;;;;;12.63;6.38;;;16.50;54.90;;;10.82;80.66;101863.06;174692;28;898;-71
2022/05/14 00:22:28;;;;;;;11.53;6.40;;;16.50;54.90;;;10.82;81.10;101860.44;174304;28;1037;-72
2022/05/14 00:22:34;;;;;;;12.55;6.40;;;16.50;54.90;;;10.84;80.46;101864.78;173762;28;1029;-72
2022/05/14 00:22:39;;;;;;;13.45;6.38;;;16.50;54.90;;;10.84;80.64;101862.19;173976;28;1045;-73
2022/05/14 00:22:45;;;;;;;13.57;6.30;;;16.50;54.90;;;10.83;80.90;101861.31;174705;28;1045;-72
2022/05/14 00:22:52;;;;;;;13.77;6.47;;;16.50;54.90;;;10.79;81.49;101862.28;174722;28;835;-71
2022/05/14 00:22:59;;;;;;;14.88;6.36;;;16.50;54.90;;;10.76;81.37;101859.75;174705;28;953;-72
2022/05/14 00:23:06;;;;;;;14.04;6.20;;;16.50;54.90;;;10.77;81.46;101862.34;174683;28;1041;-72
2022/05/14 00:23:14;;;;;;;14.00;6.20;;;16.50;54.90;;;10.78;80.93;101863.19;174724;28;957;-72
2022/05/14 00:23:20;;;;;;;14.22;6.04;;;16.50;54.90;;;10.79;81.18;101862.28;174710;28;940;-72
2022/05/14 00:23:27;;;;;;;15.43;6.18;;;16.50;54.90;;;10.80;81.33;101864.00;174696;28;894;-72
2022/05/14 00:23:33;;;;;;;17.00;6.32;;;16.50;54.90;;;10.80;81.03;101859.66;174671;28;1080;-72
2022/05/14 00:23:39;;;;;;;16.83;6.13;;;16.50;54.90;;;10.80;80.91;101859.66;174705;28;953;-71
2022/05/14 00:23:45;;;;;;;16.56;6.12;;;16.50;54.90;;;10.81;81.04;101863.97;174788;28;1167;-72
2022/05/14 00:23:51;;;;;;;16.38;6.25;;;16.50;54.90;;;10.81;80.85;101857.88;174765;28;1242;-72
2022/05/14 00:23:58;;;;;;;16.33;6.18;;;16.50;54.90;;;10.81;80.73;101858.75;174777;28;1269;-72
2022/05/14 00:24:06;;;;;;;15.77;6.30;;;16.50;54.90;;;10.83;80.98;101861.31;174774;28;888;-72
2022/05/14 00:24:12;;;;;;;15.97;6.43;;;16.50;54.90;;;10.84;80.79;101862.19;174758;28;1131;-72
2022/05/14 00:24:18;;;;;;;15.63;6.40;;;16.50;54.90;;;10.83;80.45;101861.31;174772;28;973;-72
2022/05/14 00:24:24;;;;;;;14.60;6.33;;;16.50;54.90;;;10.84;80.61;101867.41;174753;28;1049;-71
2022/05/14 00:24:29;;;;;;;13.60;6.27;;;16.50;54.90;;;10.85;80.88;101863.88;174713;28;1025;-72
2022/05/14 00:24:35;;;;;;;14.82;6.00;;;16.50;54.90;;;10.85;80.62;101863.88;174241;28;1696;-72
2022/05/14 00:24:41;;;;;;;14.63;5.95;;;16.50;54.90;;;10.85;80.34;101869.09;174634;28;913;-72
2022/05/14 00:24:46;;;;;;;14.70;5.83;;;16.50;54.90;;;10.84;80.87;101860.41;174732;28;908;-71
2022/05/14 00:24:52;;;;;;;15.43;5.85;;;16.50;54.90;;;10.85;80.68;101863.88;174673;28;1084;-72
2022/05/14 00:24:58;;;;;;;16.35;5.93;;;16.50;54.90;;;10.84;80.54;101859.56;174683;28;705;-72
2022/05/14 00:25:05;;;;;;;14.87;5.90;;;16.50;54.90;;;10.85;80.97;101864.75;174718;28;835;-72
2022/05/14 00:25:11;;;;;;;14.62;6.02;;;16.50;54.90;;;10.85;80.85;101863.88;174688;28;1084;-72
2022/05/14 00:25:18;;;;;;;14.95;6.18;;;16.50;54.90;;;10.85;80.57;101861.28;174701;28;1044;-72
2022/05/14 00:25:25;;;;;;;14.43;6.13;;;16.50;54.90;;;10.85;80.44;101863.88;174713;28;886;-72
2022/05/14 00:25:35;;;;;;;15.02;6.23;;;16.50;54.90;;;10.80;80.94;101861.38;174596;28;1906;-72
2022/05/14 00:25:42;;;;;;;15.06;6.30;;;16.50;54.90;;;10.80;80.72;101864.00;174671;28;1153;-72
2022/05/14 00:25:47;;;;;;;14.68;6.32;;;16.50;54.90;;;10.81;80.66;101868.31;174748;28;839;-72
2022/05/14 00:25:54;;;;;;;14.20;6.28;;;16.50;54.90;;;10.80;80.56;101862.25;173914;28;753;-71
2022/05/14 00:26:00;;;;;;;14.30;6.30;;;16.50;54.90;;;10.80;80.69;101859.66;174043;28;937;-71
2022/05/14 00:26:06;;;;;;;15.10;6.30;;;16.40;54.90;;;10.80;80.50;101864.88;173984;28;1057;-71
2022/05/14 00:26:13;;;;;;;14.57;6.20;;;16.50;54.90;;;10.80;80.90;101862.25;173991;28;1172;-71
2022/05/14 00:26:21;;;;;;;14.52;6.10;;;16.50;54.90;;;10.81;80.79;101863.97;173923;28;1419;-72
2022/05/14 00:26:27;;;;;;;13.30;5.92;;;16.50;54.80;;;10.81;80.69;101865.72;174003;28;989;-71
2022/05/14 00:26:36;;;;;;;12.27;5.77;;;16.50;54.80;;;10.82;80.62;101864.84;174195;28;823;-71
2022/05/14 00:26:42;;;;;;;12.35;5.70;;;16.50;54.80;;;10.81;80.49;101861.34;174664;28;879;-72
2022/05/14 00:26:47;;;;;;;15.30;5.90;;;16.50;54.80;;;10.73;81.36;101863.31;174711;28;1068;-71
2022/05/14 00:26:53;;;;;;;16.27;6.00;;;16.50;54.80;;;10.71;81.18;101864.25;174742;28;986;-71
2022/05/14 00:26:59;;;;;;;16.15;6.03;;;16.50;54.80;;;10.69;81.37;101861.69;174699;28;984;-71
2022/05/14 00:27:05;;;;;;;17.23;6.15;;;16.50;54.80;;;10.70;81.26;101860.78;174702;28;1029;-71
2022/05/14 00:27:10;;;;;;;16.93;6.17;;;16.40;54.80;;;10.71;80.93;101857.25;174737;28;853;-71
2022/05/14 00:27:16;;;;;;;14.63;6.13;;;16.50;54.80;;;10.72;81.09;101859.00;174715;28;958;-71
2022/05/14 00:27:22;;;;;;;13.55;6.15;;;16.40;54.80;;;10.73;81.29;101860.69;174711;28;1146;-72
2022/05/14 00:27:27;;;;;;;14.23;6.13;;;16.50;54.80;;;10.76;80.92;101863.25;174682;28;977;-71
2022/05/14 00:27:39;;;;;;;14.47;6.10;;;16.50;54.80;;;10.77;81.11;101866.69;174698;28;854;-71
2022/05/14 00:27:46;;;;;;;14.50;6.04;;;16.50;54.80;;;10.72;81.23;101864.22;174692;28;1230;-71
2022/05/14 00:27:53;;;;;;;14.34;5.84;;;16.40;54.80;;;10.74;81.08;101856.34;174689;28;1119;-72
2022/05/14 00:27:59;;;;;;;14.00;5.90;;;16.50;54.80;;;10.75;81.08;101861.53;174721;28;1068;-72
2022/05/14 00:28:05;;;;;;;12.90;5.90;;;16.50;54.80;;;10.76;80.67;101852.81;174725;28;930;-71
2022/05/14 00:28:11;;;;;;;13.35;6.00;;;16.40;54.80;;;10.77;80.61;101857.13;174702;28;937;-72
2022/05/14 00:28:18;;;;;;;14.73;6.07;;;16.40;54.80;;;10.78;80.63;101857.97;174712;28;891;-72
2022/05/14 00:28:24;;;;;;;13.68;6.02;;;16.50;54.80;;;10.74;80.90;101862.41;174739;28;993;-71
2022/05/14 00:28:30;;;;;;;15.02;6.05;;;16.50;54.80;;;10.73;81.09;101860.69;174766;28;965;-72
2022/05/14 00:28:36;;;;;;;15.77;6.03;;;16.50;54.80;;;10.74;81.11;101861.56;174490;28;1077;-72
2022/05/14 00:28:42;;;;;;;14.43;5.72;;;16.50;54.80;;;10.76;80.89;101860.63;174674;28;858;-71
2022/05/14 00:28:48;;;;;;;13.77;5.75;;;16.50;54.80;;;10.76;80.89;101859.75;174727;28;1084;-72
2022/05/14 00:28:54;;;;;;;15.95;5.65;;;16.40;54.80;;;10.77;80.22;101859.72;174723;28;1112;-72
2022/05/14 00:29:00;;;;;;;17.20;5.75;;;16.50;54.80;;;10.77;80.36;101857.13;174742;28;843;-72
2022/05/14 00:29:08;;;;;;;17.15;5.78;;;16.50;54.80;;;10.79;80.94;101862.28;174744;28;1108;-71
2022/05/14 00:29:14;;;;;;;17.55;5.75;;;16.40;54.70;;;10.78;80.44;101858.81;174593;28;1577;-71
2022/05/14 00:29:20;;;;;;;16.52;5.75;;;16.50;54.80;;;10.78;80.94;101858.81;174823;28;835;-71
2022/05/14 00:29:27;;;;;;;13.85;5.82;;;16.50;54.80;;;10.78;80.67;101858.81;174598;28;1433;-71
2022/05/14 00:29:32;;;;;;;12.68;5.76;;;16.50;54.80;;;10.78;80.29;101858.81;174693;28;977;-72
2022/05/14 00:29:38;;;;;;;12.93;5.87;;;16.50;54.80;;;10.79;80.58;101855.34;174431;28;831;-71
2022/05/14 00:29:44;;;;;;;14.05;6.13;;;16.50;54.80;;;10.80;80.84;101859.66;174685;28;864;-71
2022/05/14 00:29:50;;;;;;;15.65;6.20;;;16.50;54.80;;;10.79;81.26;101857.94;174706;28;1025;-71
2022/05/14 00:29:56;;;;;;;16.65;6.10;;;16.40;54.80;;;10.80;80.77;101858.78;174698;28;925;-71
2022/05/14 00:30:03;;;;;;;17.86;6.00;;;16.40;54.80;;;10.80;80.46;101862.25;174663;28;1271;-71
2022/05/14 00:30:13;;;;;;;19.02;5.97;;;16.50;54.80;;;10.81;81.07;101856.13;174665;28;1081;-71
2022/05/14 00:30:27;;;;;;;17.48;5.80;;;16.40;54.80;;;10.82;80.64;101857.84;174693;28;1142;-71
2022/05/14 00:30:34;;;;;;;16.41;5.93;;;16.40;54.80;;;10.81;80.52;101858.75;174668;28;1247;-72
2022/05/14 00:30:41;;;;;;;16.00;6.00;;;16.40;54.80;;;10.82;80.62;101854.38;174683;28;989;-72
2022/05/14 00:30:47;;;;;;;16.00;6.00;;;16.50;54.80;;;10.76;81.09;101860.63;174733;28;954;-72
2022/05/14 00:30:54;;;;;;;14.40;5.74;;;16.40;54.70;;;10.68;81.39;101854.75;174649;28;965;-72